Bruce, SD (57220)

21:09 CDT le 21 septembre 2014 (GMT -0500)
Brown Farm LTD. | Change Station
CLOSE
Current Station
Stations météorologiques personnelles
Location: Arlington, SD
Altitude: 1808 ft
Stations météo à proximité

Alt. 1808 ft 44.38 °N, 97.08 °W | Updated 5 seconds ago

Ciel dégagé
Ciel dégagé
57.3 ° F
Paraît 57.3 ° F
N
0.0
Vent Variable Vent de NNO
Gusts 0.0 mph

Aujourd'hui
Haut(e) -- | Bas -- ° F
--% Risque de précip.
Hier
Haut(e) -- | Bas -- ° F
Precip. -- pouce
7:13 AM 7:26 PM
Lune descendante, 4% visible
Pression 30.27 pouce
Visibilité 10.0 Miles terrestres
Nuages Ciel dégagé
Point de rosée 49 ° F
Humidité 73%
Précipitations 0.00 pouce
Profondeur de la couche neigeuse 0 in
UV 0.0 sur 12
Pollen 5.50 sur 12
Qualité de l'air Non disponible.
Flu Activity Non disponible.
METAR KATY 220153Z AUTO 00000KT 10SM CLR 12/08 A3025 RMK AO2 SLP248 T01220078

More Conditions Fewer Conditions

Pression 30.27 pouce
Visibilité 10.0 Miles terrestres
Nuages Ciel dégagé
Point de rosée 49 ° F
Humidité 73%
Précipitations 0.00 pouce
Profondeur de la couche neigeuse 0 in
UV 0.0 sur 12
Pollen 5.50 sur 12
Qualité de l'air Non disponible.
Flu Activity Non disponible.
METAR KATY 220153Z AUTO 00000KT 10SM CLR 12/08 A3025 RMK AO2 SLP248 T01220078

More Conditions Fewer Conditions

10-Day Weather Forecast

Almanac

Astronomie

Sep. 21, 2014 Lever Coucher
Temps réel 07:13 CDT 19:26 CDT
Crépuscule civil 06:44 CDT 19:56 CDT
Crépuscule nautique 06:10 CDT 20:30 CDT
Crépuscule astronomique 05:35 CDT 21:05 CDT
Lune 04:44 CDT (9/21) 18:07 CDT (9/21)
Durée de lumière visible 13h 11m
Longueur du jour
12h 13m
Tomorrow will be 3m 3s shorter.
Lune descendante, 4% of the Moon is Illuminated
Aujourd'hui
Lune descendante
Sep 24
Nouveau
Oct 1
Premier quartier
Oct 8
Pleine lune
Oct 15
Dernier quartier

Extrêmes aujourd'hui

State Highs State Lows

Community

WunderPhotos

Upload Photos

1,755,347 Photos téléchargées !

WunderBlogs® & News

Nearby

Épaisseur de neige

Station Depth Altitude
Blind Park 0 in 6890 ft

Activité sismique

Ville Distance Mag. Time & Date
No recent earthquake activity has been reported nearby.
Minimum magnitude displayed is 2.5.

Températures des eaux côtières

Lieu Température
Aucun rapport de station

Stations météo à proximité